Palmer, Michigan
Current Conditions -  °F | °C
As of 9:50 AM on Saturday 22 Nov 2014 (Local Time) from KSAW Reporting Station
Overcast Overcast  
Wind Chill: 17°   Ceiling: 1300
Heat Index: 28°   Visibility: 7mi
Dew Point: 25°   Wind: 14mph
Humidity: 86%   Direction: 190°S
Pressure: 29.72"   Gusts: NA
Location:  46.44°N, 87.59°W
Report Text: KSAW 221450Z 19012KT 7SM OVC013 M02/M04 A2972
Loading
Personal Weather Stations






























Interactive Weather Map New forecast layout! Learn more

10-Day Weather Forecast

Advertisements
Track Severe Weather on mobile